sensor_id;sensor_type;location;lat;lon;timestamp;P1;durP1;ratioP1;P2;durP2;ratioP2
21941;SDS011;11135;54.192;15.670;2024-02-16T00:01:57;16.42;;;14.20;;
21941;SDS011;11135;54.192;15.670;2024-02-16T00:05:03;15.15;;;11.75;;
21941;SDS011;11135;54.192;15.670;2024-02-16T00:08:13;15.32;;;11.77;;
21941;SDS011;11135;54.192;15.670;2024-02-16T00:11:18;16.23;;;11.75;;
21941;SDS011;11135;54.192;15.670;2024-02-16T00:14:25;16.42;;;12.73;;
21941;SDS011;11135;54.192;15.670;2024-02-16T00:17:30;16.55;;;12.90;;
21941;SDS011;11135;54.192;15.670;2024-02-16T00:20:36;15.65;;;10.27;;
21941;SDS011;11135;54.192;15.670;2024-02-16T00:23:44;15.10;;;11.60;;
21941;SDS011;11135;54.192;15.670;2024-02-16T00:26:49;15.13;;;11.68;;
21941;SDS011;11135;54.192;15.670;2024-02-16T00:29:54;16.00;;;11.68;;
21941;SDS011;11135;54.192;15.670;2024-02-16T00:33:03;19.00;;;12.82;;
21941;SDS011;11135;54.192;15.670;2024-02-16T00:36:09;17.73;;;13.05;;
21941;SDS011;11135;54.192;15.670;2024-02-16T00:39:17;15.70;;;11.63;;
21941;SDS011;11135;54.192;15.670;2024-02-16T00:42:23;14.98;;;10.25;;
21941;SDS011;11135;54.192;15.670;2024-02-16T00:45:30;17.05;;;11.52;;
21941;SDS011;11135;54.192;15.670;2024-02-16T00:48:35;15.85;;;11.85;;
21941;SDS011;11135;54.192;15.670;2024-02-16T00:51:41;15.93;;;12.70;;
21941;SDS011;11135;54.192;15.670;2024-02-16T00:54:49;16.52;;;12.50;;
21941;SDS011;11135;54.192;15.670;2024-02-16T00:57:55;16.02;;;11.48;;
21941;SDS011;11135;54.192;15.670;2024-02-16T01:01:00;16.80;;;12.35;;
21941;SDS011;11135;54.192;15.670;2024-02-16T01:04:14;16.88;;;12.02;;
21941;SDS011;11135;54.192;15.670;2024-02-16T01:07:19;20.48;;;13.68;;
21941;SDS011;11135;54.192;15.670;2024-02-16T01:10:27;18.58;;;12.32;;
21941;SDS011;11135;54.192;15.670;2024-02-16T01:13:32;16.02;;;10.75;;
21941;SDS011;11135;54.192;15.670;2024-02-16T01:16:38;15.75;;;11.27;;
21941;SDS011;11135;54.192;15.670;2024-02-16T01:19:43;16.52;;;12.15;;
21941;SDS011;11135;54.192;15.670;2024-02-16T01:22:49;16.77;;;11.70;;
21941;SDS011;11135;54.192;15.670;2024-02-16T01:25:57;16.05;;;11.70;;
21941;SDS011;11135;54.192;15.670;2024-02-16T01:29:02;14.85;;;10.77;;
21941;SDS011;11135;54.192;15.670;2024-02-16T01:32:08;15.77;;;11.88;;
21941;SDS011;11135;54.192;15.670;2024-02-16T01:35:16;17.70;;;12.65;;
21941;SDS011;11135;54.192;15.670;2024-02-16T01:38:21;16.75;;;11.93;;
21941;SDS011;11135;54.192;15.670;2024-02-16T01:41:30;13.63;;;11.25;;
21941;SDS011;11135;54.192;15.670;2024-02-16T01:44:36;15.43;;;11.40;;
21941;SDS011;11135;54.192;15.670;2024-02-16T01:47:43;15.60;;;11.43;;
21941;SDS011;11135;54.192;15.670;2024-02-16T01:50:49;17.63;;;12.88;;
21941;SDS011;11135;54.192;15.670;2024-02-16T01:53:54;14.52;;;10.73;;
21941;SDS011;11135;54.192;15.670;2024-02-16T01:57:03;14.90;;;10.63;;
21941;SDS011;11135;54.192;15.670;2024-02-16T02:00:10;16.13;;;12.20;;
21941;SDS011;11135;54.192;15.670;2024-02-16T02:03:17;15.05;;;11.15;;
21941;SDS011;11135;54.192;15.670;2024-02-16T02:06:22;17.08;;;11.10;;
21941;SDS011;11135;54.192;15.670;2024-02-16T02:09:28;14.45;;;9.98;;
21941;SDS011;11135;54.192;15.670;2024-02-16T02:12:38;17.38;;;11.45;;
21941;SDS011;11135;54.192;15.670;2024-02-16T02:15:45;15.27;;;10.15;;
21941;SDS011;11135;54.192;15.670;2024-02-16T02:18:50;15.23;;;10.77;;
21941;SDS011;11135;54.192;15.670;2024-02-16T02:21:56;13.98;;;10.48;;
21941;SDS011;11135;54.192;15.670;2024-02-16T02:25:06;13.88;;;10.65;;
21941;SDS011;11135;54.192;15.670;2024-02-16T02:28:12;13.98;;;10.15;;
21941;SDS011;11135;54.192;15.670;2024-02-16T02:31:18;16.35;;;10.95;;
21941;SDS011;11135;54.192;15.670;2024-02-16T02:34:23;13.98;;;10.48;;
21941;SDS011;11135;54.192;15.670;2024-02-16T02:37:29;17.33;;;10.77;;
21941;SDS011;11135;54.192;15.670;2024-02-16T02:40:37;15.55;;;10.30;;
21941;SDS011;11135;54.192;15.670;2024-02-16T02:43:42;16.63;;;10.93;;
21941;SDS011;11135;54.192;15.670;2024-02-16T02:46:48;17.02;;;11.88;;
21941;SDS011;11135;54.192;15.670;2024-02-16T02:49:54;14.63;;;10.27;;
21941;SDS011;11135;54.192;15.670;2024-02-16T02:52:59;16.50;;;11.18;;
21941;SDS011;11135;54.192;15.670;2024-02-16T02:56:07;15.00;;;10.73;;
21941;SDS011;11135;54.192;15.670;2024-02-16T02:59:12;17.35;;;12.00;;
21941;SDS011;11135;54.192;15.670;2024-02-16T03:02:18;16.10;;;10.68;;
21941;SDS011;11135;54.192;15.670;2024-02-16T03:05:23;14.55;;;10.02;;
21941;SDS011;11135;54.192;15.670;2024-02-16T03:08:29;17.17;;;12.43;;
21941;SDS011;11135;54.192;15.670;2024-02-16T03:11:36;14.20;;;9.27;;
21941;SDS011;11135;54.192;15.670;2024-02-16T03:14:42;17.90;;;12.05;;
21941;SDS011;11135;54.192;15.670;2024-02-16T03:17:47;15.93;;;11.52;;
21941;SDS011;11135;54.192;15.670;2024-02-16T03:20:53;15.43;;;11.00;;
21941;SDS011;11135;54.192;15.670;2024-02-16T03:23:59;15.90;;;12.13;;
21941;SDS011;11135;54.192;15.670;2024-02-16T03:27:07;17.90;;;10.77;;
21941;SDS011;11135;54.192;15.670;2024-02-16T03:30:13;17.63;;;11.27;;
21941;SDS011;11135;54.192;15.670;2024-02-16T03:33:20;16.15;;;11.40;;
21941;SDS011;11135;54.192;15.670;2024-02-16T03:36:25;17.20;;;9.80;;
21941;SDS011;11135;54.192;15.670;2024-02-16T03:39:31;17.48;;;11.95;;
21941;SDS011;11135;54.192;15.670;2024-02-16T03:42:39;16.42;;;11.38;;
21941;SDS011;11135;54.192;15.670;2024-02-16T03:45:44;15.90;;;10.52;;
21941;SDS011;11135;54.192;15.670;2024-02-16T03:48:49;17.40;;;11.85;;
21941;SDS011;11135;54.192;15.670;2024-02-16T03:51:55;14.73;;;10.63;;
21941;SDS011;11135;54.192;15.670;2024-02-16T03:55:00;15.02;;;10.25;;
21941;SDS011;11135;54.192;15.670;2024-02-16T03:58:08;16.05;;;11.43;;
21941;SDS011;11135;54.192;15.670;2024-02-16T04:01:14;15.85;;;11.52;;
21941;SDS011;11135;54.192;15.670;2024-02-16T04:04:20;17.20;;;10.93;;
21941;SDS011;11135;54.192;15.670;2024-02-16T04:07:25;14.68;;;10.77;;
21941;SDS011;11135;54.192;15.670;2024-02-16T04:10:31;12.68;;;9.48;;
21941;SDS011;11135;54.192;15.670;2024-02-16T04:13:40;16.92;;;11.13;;
21941;SDS011;11135;54.192;15.670;2024-02-16T04:16:46;15.25;;;11.07;;
21941;SDS011;11135;54.192;15.670;2024-02-16T04:19:52;13.98;;;9.57;;
21941;SDS011;11135;54.192;15.670;2024-02-16T04:22:57;14.20;;;10.57;;
21941;SDS011;11135;54.192;15.670;2024-02-16T04:26:03;14.98;;;10.48;;
21941;SDS011;11135;54.192;15.670;2024-02-16T04:29:13;14.32;;;10.23;;
21941;SDS011;11135;54.192;15.670;2024-02-16T04:32:18;13.10;;;9.95;;
21941;SDS011;11135;54.192;15.670;2024-02-16T04:35:24;15.32;;;11.23;;
21941;SDS011;11135;54.192;15.670;2024-02-16T04:38:29;15.70;;;10.82;;
21941;SDS011;11135;54.192;15.670;2024-02-16T04:41:35;14.73;;;10.27;;
21941;SDS011;11135;54.192;15.670;2024-02-16T04:44:43;15.00;;;11.25;;
21941;SDS011;11135;54.192;15.670;2024-02-16T04:47:48;15.05;;;9.88;;
21941;SDS011;11135;54.192;15.670;2024-02-16T04:50:54;15.35;;;10.52;;
21941;SDS011;11135;54.192;15.670;2024-02-16T04:53:59;13.80;;;9.90;;
21941;SDS011;11135;54.192;15.670;2024-02-16T04:57:06;16.70;;;9.98;;
21941;SDS011;11135;54.192;15.670;2024-02-16T05:00:14;14.18;;;11.23;;
21941;SDS011;11135;54.192;15.670;2024-02-16T05:03:20;16.10;;;10.45;;
21941;SDS011;11135;54.192;15.670;2024-02-16T05:06:26;16.05;;;11.02;;
21941;SDS011;11135;54.192;15.670;2024-02-16T05:09:31;17.60;;;11.32;;
21941;SDS011;11135;54.192;15.670;2024-02-16T05:12:37;17.65;;;11.40;;
21941;SDS011;11135;54.192;15.670;2024-02-16T05:15:46;19.20;;;12.07;;
21941;SDS011;11135;54.192;15.670;2024-02-16T05:18:52;16.83;;;11.38;;
21941;SDS011;11135;54.192;15.670;2024-02-16T05:21:58;13.73;;;9.77;;
21941;SDS011;11135;54.192;15.670;2024-02-16T05:25:04;15.05;;;10.88;;
21941;SDS011;11135;54.192;15.670;2024-02-16T05:28:10;19.05;;;11.27;;
21941;SDS011;11135;54.192;15.670;2024-02-16T05:31:19;14.90;;;10.35;;
21941;SDS011;11135;54.192;15.670;2024-02-16T05:34:24;19.13;;;12.40;;
21941;SDS011;11135;54.192;15.670;2024-02-16T05:37:34;14.80;;;10.73;;
21941;SDS011;11135;54.192;15.670;2024-02-16T05:40:41;15.45;;;10.65;;
21941;SDS011;11135;54.192;15.670;2024-02-16T05:43:57;18.98;;;11.35;;
21941;SDS011;11135;54.192;15.670;2024-02-16T05:47:05;17.17;;;11.98;;
21941;SDS011;11135;54.192;15.670;2024-02-16T05:50:10;18.20;;;12.00;;
21941;SDS011;11135;54.192;15.670;2024-02-16T05:53:16;21.02;;;10.68;;
21941;SDS011;11135;54.192;15.670;2024-02-16T05:56:28;17.55;;;11.68;;
21941;SDS011;11135;54.192;15.670;2024-02-16T05:59:36;17.55;;;11.82;;
21941;SDS011;11135;54.192;15.670;2024-02-16T06:02:44;17.52;;;11.27;;
21941;SDS011;11135;54.192;15.670;2024-02-16T06:05:50;20.75;;;13.65;;
21941;SDS011;11135;54.192;15.670;2024-02-16T06:08:56;18.95;;;12.52;;
21941;SDS011;11135;54.192;15.670;2024-02-16T06:12:01;17.75;;;11.80;;
21941;SDS011;11135;54.192;15.670;2024-02-16T06:15:10;18.88;;;12.98;;
21941;SDS011;11135;54.192;15.670;2024-02-16T06:18:20;18.75;;;12.95;;
21941;SDS011;11135;54.192;15.670;2024-02-16T06:21:26;18.20;;;11.68;;
21941;SDS011;11135;54.192;15.670;2024-02-16T06:24:31;19.60;;;13.48;;
21941;SDS011;11135;54.192;15.670;2024-02-16T06:27:37;17.17;;;11.43;;
21941;SDS011;11135;54.192;15.670;2024-02-16T06:30:42;17.65;;;12.45;;
21941;SDS011;11135;54.192;15.670;2024-02-16T06:33:51;19.27;;;13.07;;
21941;SDS011;11135;54.192;15.670;2024-02-16T06:36:56;17.92;;;11.68;;
21941;SDS011;11135;54.192;15.670;2024-02-16T06:40:02;19.38;;;13.18;;
21941;SDS011;11135;54.192;15.670;2024-02-16T06:43:08;18.63;;;13.00;;
21941;SDS011;11135;54.192;15.670;2024-02-16T06:46:13;19.42;;;12.38;;
21941;SDS011;11135;54.192;15.670;2024-02-16T06:49:21;18.92;;;13.55;;
21941;SDS011;11135;54.192;15.670;2024-02-16T06:52:26;19.20;;;13.32;;
21941;SDS011;11135;54.192;15.670;2024-02-16T06:55:32;19.77;;;13.65;;
21941;SDS011;11135;54.192;15.670;2024-02-16T06:58:37;19.33;;;12.98;;
21941;SDS011;11135;54.192;15.670;2024-02-16T07:01:43;22.10;;;14.55;;
21941;SDS011;11135;54.192;15.670;2024-02-16T07:04:51;17.30;;;11.00;;
21941;SDS011;11135;54.192;15.670;2024-02-16T07:07:57;19.00;;;11.93;;
21941;SDS011;11135;54.192;15.670;2024-02-16T07:11:02;17.50;;;11.27;;
21941;SDS011;11135;54.192;15.670;2024-02-16T07:14:10;19.27;;;12.75;;
21941;SDS011;11135;54.192;15.670;2024-02-16T07:17:16;19.60;;;13.65;;
21941;SDS011;11135;54.192;15.670;2024-02-16T07:20:24;16.95;;;11.52;;
21941;SDS011;11135;54.192;15.670;2024-02-16T07:23:30;17.20;;;12.07;;
21941;SDS011;11135;54.192;15.670;2024-02-16T07:26:38;17.95;;;12.60;;
21941;SDS011;11135;54.192;15.670;2024-02-16T07:29:44;17.30;;;10.88;;
21941;SDS011;11135;54.192;15.670;2024-02-16T07:32:49;15.38;;;8.63;;
21941;SDS011;11135;54.192;15.670;2024-02-16T07:35:58;19.65;;;12.93;;
21941;SDS011;11135;54.192;15.670;2024-02-16T07:39:03;17.80;;;12.77;;
21941;SDS011;11135;54.192;15.670;2024-02-16T07:42:10;16.95;;;10.73;;
21941;SDS011;11135;54.192;15.670;2024-02-16T07:45:15;17.42;;;12.82;;
21941;SDS011;11135;54.192;15.670;2024-02-16T07:48:21;16.85;;;11.80;;
21941;SDS011;11135;54.192;15.670;2024-02-16T07:51:29;19.63;;;11.65;;
21941;SDS011;11135;54.192;15.670;2024-02-16T07:54:35;16.27;;;10.75;;
21941;SDS011;11135;54.192;15.670;2024-02-16T07:57:41;14.20;;;10.50;;
21941;SDS011;11135;54.192;15.670;2024-02-16T08:00:49;15.93;;;11.50;;
21941;SDS011;11135;54.192;15.670;2024-02-16T08:03:54;19.88;;;11.73;;
21941;SDS011;11135;54.192;15.670;2024-02-16T08:07:05;11.95;;;8.48;;
21941;SDS011;11135;54.192;15.670;2024-02-16T08:10:11;14.65;;;9.32;;
21941;SDS011;11135;54.192;15.670;2024-02-16T08:13:17;14.85;;;10.45;;
21941;SDS011;11135;54.192;15.670;2024-02-16T08:16:22;14.80;;;11.40;;
21941;SDS011;11135;54.192;15.670;2024-02-16T08:19:31;15.57;;;10.40;;
21941;SDS011;11135;54.192;15.670;2024-02-16T08:22:40;12.65;;;8.52;;
21941;SDS011;11135;54.192;15.670;2024-02-16T08:25:45;13.75;;;9.63;;
21941;SDS011;11135;54.192;15.670;2024-02-16T08:28:50;15.98;;;9.90;;
21941;SDS011;11135;54.192;15.670;2024-02-16T08:31:56;11.20;;;7.53;;
21941;SDS011;11135;54.192;15.670;2024-02-16T08:35:01;11.20;;;7.72;;
21941;SDS011;11135;54.192;15.670;2024-02-16T08:38:11;12.70;;;8.35;;
21941;SDS011;11135;54.192;15.670;2024-02-16T08:41:16;11.95;;;8.73;;
21941;SDS011;11135;54.192;15.670;2024-02-16T08:44:24;13.05;;;8.60;;
21941;SDS011;11135;54.192;15.670;2024-02-16T08:47:30;10.43;;;8.07;;
21941;SDS011;11135;54.192;15.670;2024-02-16T08:50:35;12.43;;;8.32;;
21941;SDS011;11135;54.192;15.670;2024-02-16T08:53:43;12.75;;;8.65;;
21941;SDS011;11135;54.192;15.670;2024-02-16T08:56:48;14.10;;;8.90;;
21941;SDS011;11135;54.192;15.670;2024-02-16T08:59:56;10.70;;;8.25;;
21941;SDS011;11135;54.192;15.670;2024-02-16T09:03:04;10.10;;;7.53;;
21941;SDS011;11135;54.192;15.670;2024-02-16T09:06:10;9.57;;;6.35;;
21941;SDS011;11135;54.192;15.670;2024-02-16T09:09:19;7.45;;;5.78;;
21941;SDS011;11135;54.192;15.670;2024-02-16T09:12:25;10.25;;;8.20;;
21941;SDS011;11135;54.192;15.670;2024-02-16T09:15:31;10.85;;;7.75;;
21941;SDS011;11135;54.192;15.670;2024-02-16T09:18:36;14.13;;;8.57;;
21941;SDS011;11135;54.192;15.670;2024-02-16T09:21:42;13.07;;;8.05;;
21941;SDS011;11135;54.192;15.670;2024-02-16T09:24:49;12.05;;;7.47;;
21941;SDS011;11135;54.192;15.670;2024-02-16T09:27:57;9.77;;;6.68;;
21941;SDS011;11135;54.192;15.670;2024-02-16T09:31:02;11.60;;;7.45;;
21941;SDS011;11135;54.192;15.670;2024-02-16T09:34:07;14.00;;;8.82;;
21941;SDS011;11135;54.192;15.670;2024-02-16T09:37:12;12.38;;;8.93;;
21941;SDS011;11135;54.192;15.670;2024-02-16T09:40:21;10.50;;;7.85;;
21941;SDS011;11135;54.192;15.670;2024-02-16T09:43:26;13.82;;;7.57;;
21941;SDS011;11135;54.192;15.670;2024-02-16T09:46:33;12.48;;;7.25;;
21941;SDS011;11135;54.192;15.670;2024-02-16T09:49:38;11.77;;;6.88;;
21941;SDS011;11135;54.192;15.670;2024-02-16T09:52:46;8.40;;;6.00;;
21941;SDS011;11135;54.192;15.670;2024-02-16T09:55:54;9.13;;;5.75;;
21941;SDS011;11135;54.192;15.670;2024-02-16T09:59:00;10.43;;;7.15;;
21941;SDS011;11135;54.192;15.670;2024-02-16T10:02:09;9.77;;;6.75;;
21941;SDS011;11135;54.192;15.670;2024-02-16T10:05:15;13.80;;;8.27;;
21941;SDS011;11135;54.192;15.670;2024-02-16T10:08:21;12.57;;;6.88;;
21941;SDS011;11135;54.192;15.670;2024-02-16T10:11:29;9.60;;;6.20;;
21941;SDS011;11135;54.192;15.670;2024-02-16T10:14:34;9.93;;;5.82;;
21941;SDS011;11135;54.192;15.670;2024-02-16T10:17:43;10.43;;;6.25;;
21941;SDS011;11135;54.192;15.670;2024-02-16T10:20:49;8.60;;;6.00;;
21941;SDS011;11135;54.192;15.670;2024-02-16T10:23:56;7.90;;;4.97;;
21941;SDS011;11135;54.192;15.670;2024-02-16T10:27:04;7.55;;;4.60;;
21941;SDS011;11135;54.192;15.670;2024-02-16T10:30:12;8.32;;;5.70;;
21941;SDS011;11135;54.192;15.670;2024-02-16T10:33:17;6.82;;;4.88;;
21941;SDS011;11135;54.192;15.670;2024-02-16T10:36:22;7.43;;;4.75;;
21941;SDS011;11135;54.192;15.670;2024-02-16T10:39:30;8.13;;;5.50;;
21941;SDS011;11135;54.192;15.670;2024-02-16T10:42:45;9.20;;;4.50;;
21941;SDS011;11135;54.192;15.670;2024-02-16T10:45:51;7.88;;;4.90;;
21941;SDS011;11135;54.192;15.670;2024-02-16T10:48:58;6.10;;;3.88;;
21941;SDS011;11135;54.192;15.670;2024-02-16T10:52:09;4.55;;;3.17;;
21941;SDS011;11135;54.192;15.670;2024-02-16T10:55:16;6.57;;;4.68;;
21941;SDS011;11135;54.192;15.670;2024-02-16T10:58:24;6.25;;;3.67;;
21941;SDS011;11135;54.192;15.670;2024-02-16T11:01:32;5.65;;;3.67;;
21941;SDS011;11135;54.192;15.670;2024-02-16T11:04:45;5.88;;;3.50;;
21941;SDS011;11135;54.192;15.670;2024-02-16T11:07:58;6.07;;;3.50;;
21941;SDS011;11135;54.192;15.670;2024-02-16T11:11:06;5.30;;;3.55;;
21941;SDS011;11135;54.192;15.670;2024-02-16T11:14:17;4.95;;;3.40;;
21941;SDS011;11135;54.192;15.670;2024-02-16T11:17:23;5.82;;;3.25;;
21941;SDS011;11135;54.192;15.670;2024-02-16T11:20:35;5.45;;;3.63;;
21941;SDS011;11135;54.192;15.670;2024-02-16T11:26:46;5.60;;;3.70;;
21941;SDS011;11135;54.192;15.670;2024-02-16T11:29:54;4.38;;;2.95;;
21941;SDS011;11135;54.192;15.670;2024-02-16T11:33:03;6.00;;;3.27;;
21941;SDS011;11135;54.192;15.670;2024-02-16T11:36:09;3.55;;;2.80;;
21941;SDS011;11135;54.192;15.670;2024-02-16T11:39:15;4.68;;;3.15;;
21941;SDS011;11135;54.192;15.670;2024-02-16T11:42:21;6.20;;;2.90;;
21941;SDS011;11135;54.192;15.670;2024-02-16T11:45:33;4.40;;;2.85;;
21941;SDS011;11135;54.192;15.670;2024-02-16T11:48:39;5.00;;;2.90;;
21941;SDS011;11135;54.192;15.670;2024-02-16T11:51:44;5.50;;;3.75;;
21941;SDS011;11135;54.192;15.670;2024-02-16T11:54:50;5.65;;;2.97;;
21941;SDS011;11135;54.192;15.670;2024-02-16T11:57:55;4.00;;;2.63;;
21941;SDS011;11135;54.192;15.670;2024-02-16T12:01:04;5.25;;;3.38;;
21941;SDS011;11135;54.192;15.670;2024-02-16T12:04:19;6.97;;;4.00;;
21941;SDS011;11135;54.192;15.670;2024-02-16T12:07:25;5.82;;;3.15;;
21941;SDS011;11135;54.192;15.670;2024-02-16T12:10:31;6.22;;;2.92;;
21941;SDS011;11135;54.192;15.670;2024-02-16T12:13:37;4.57;;;2.92;;
21941;SDS011;11135;54.192;15.670;2024-02-16T12:16:46;5.47;;;3.30;;
21941;SDS011;11135;54.192;15.670;2024-02-16T12:19:51;5.45;;;3.25;;
21941;SDS011;11135;54.192;15.670;2024-02-16T12:22:59;5.53;;;3.53;;
21941;SDS011;11135;54.192;15.670;2024-02-16T12:26:15;6.47;;;3.47;;
21941;SDS011;11135;54.192;15.670;2024-02-16T12:29:20;6.03;;;3.53;;
21941;SDS011;11135;54.192;15.670;2024-02-16T12:32:28;5.18;;;3.20;;
21941;SDS011;11135;54.192;15.670;2024-02-16T12:35:34;5.72;;;3.78;;
21941;SDS011;11135;54.192;15.670;2024-02-16T12:38:40;3.65;;;2.10;;
21941;SDS011;11135;54.192;15.670;2024-02-16T12:41:46;3.88;;;2.63;;
21941;SDS011;11135;54.192;15.670;2024-02-16T12:44:52;4.38;;;2.60;;
21941;SDS011;11135;54.192;15.670;2024-02-16T12:48:01;3.58;;;2.17;;
21941;SDS011;11135;54.192;15.670;2024-02-16T12:51:07;4.50;;;2.58;;
21941;SDS011;11135;54.192;15.670;2024-02-16T12:54:13;5.22;;;2.22;;
21941;SDS011;11135;54.192;15.670;2024-02-16T12:57:21;4.38;;;2.42;;
21941;SDS011;11135;54.192;15.670;2024-02-16T13:00:26;5.22;;;2.15;;
21941;SDS011;11135;54.192;15.670;2024-02-16T13:03:36;4.97;;;2.50;;
21941;SDS011;11135;54.192;15.670;2024-02-16T13:06:41;3.28;;;2.10;;
21941;SDS011;11135;54.192;15.670;2024-02-16T13:09:47;4.88;;;1.90;;
21941;SDS011;11135;54.192;15.670;2024-02-16T13:12:53;3.83;;;2.40;;
21941;SDS011;11135;54.192;15.670;2024-02-16T13:15:58;5.25;;;2.50;;
21941;SDS011;11135;54.192;15.670;2024-02-16T13:19:06;5.07;;;2.53;;
21941;SDS011;11135;54.192;15.670;2024-02-16T13:22:12;3.75;;;2.08;;
21941;SDS011;11135;54.192;15.670;2024-02-16T13:25:17;4.70;;;2.50;;
21941;SDS011;11135;54.192;15.670;2024-02-16T13:28:25;3.17;;;2.35;;
21941;SDS011;11135;54.192;15.670;2024-02-16T13:31:33;3.85;;;2.50;;
21941;SDS011;11135;54.192;15.670;2024-02-16T13:34:42;3.92;;;2.28;;
21941;SDS011;11135;54.192;15.670;2024-02-16T13:37:48;5.25;;;2.42;;
21941;SDS011;11135;54.192;15.670;2024-02-16T13:40:53;2.83;;;1.92;;
21941;SDS011;11135;54.192;15.670;2024-02-16T13:43:58;3.67;;;2.55;;
21941;SDS011;11135;54.192;15.670;2024-02-16T13:47:04;4.65;;;2.20;;
21941;SDS011;11135;54.192;15.670;2024-02-16T13:50:12;4.25;;;2.65;;
21941;SDS011;11135;54.192;15.670;2024-02-16T13:53:17;4.13;;;2.47;;
21941;SDS011;11135;54.192;15.670;2024-02-16T13:56:24;4.55;;;2.65;;
21941;SDS011;11135;54.192;15.670;2024-02-16T13:59:30;4.20;;;2.35;;
21941;SDS011;11135;54.192;15.670;2024-02-16T14:02:35;3.55;;;2.03;;
21941;SDS011;11135;54.192;15.670;2024-02-16T14:05:43;4.57;;;2.72;;
21941;SDS011;11135;54.192;15.670;2024-02-16T14:08:49;4.65;;;2.67;;
21941;SDS011;11135;54.192;15.670;2024-02-16T14:11:55;4.45;;;2.50;;
21941;SDS011;11135;54.192;15.670;2024-02-16T14:15:01;3.92;;;2.20;;
21941;SDS011;11135;54.192;15.670;2024-02-16T14:18:07;4.40;;;2.58;;
21941;SDS011;11135;54.192;15.670;2024-02-16T14:21:25;5.80;;;2.90;;
21941;SDS011;11135;54.192;15.670;2024-02-16T14:24:37;4.97;;;2.70;;
21941;SDS011;11135;54.192;15.670;2024-02-16T14:27:42;4.90;;;2.63;;
21941;SDS011;11135;54.192;15.670;2024-02-16T14:30:48;4.07;;;2.53;;
21941;SDS011;11135;54.192;15.670;2024-02-16T14:33:53;6.75;;;3.17;;
21941;SDS011;11135;54.192;15.670;2024-02-16T14:37:01;6.30;;;3.35;;
21941;SDS011;11135;54.192;15.670;2024-02-16T14:40:07;4.32;;;2.85;;
21941;SDS011;11135;54.192;15.670;2024-02-16T14:43:15;4.75;;;3.20;;
21941;SDS011;11135;54.192;15.670;2024-02-16T14:46:20;5.40;;;3.33;;
21941;SDS011;11135;54.192;15.670;2024-02-16T14:49:30;5.93;;;3.22;;
21941;SDS011;11135;54.192;15.670;2024-02-16T14:52:38;4.57;;;2.95;;
21941;SDS011;11135;54.192;15.670;2024-02-16T14:55:44;4.75;;;2.85;;
21941;SDS011;11135;54.192;15.670;2024-02-16T14:58:49;6.18;;;3.03;;
21941;SDS011;11135;54.192;15.670;2024-02-16T15:01:54;6.20;;;3.38;;
21941;SDS011;11135;54.192;15.670;2024-02-16T15:05:00;7.28;;;3.40;;
21941;SDS011;11135;54.192;15.670;2024-02-16T15:08:09;4.95;;;3.13;;
21941;SDS011;11135;54.192;15.670;2024-02-16T15:11:14;10.35;;;3.70;;
21941;SDS011;11135;54.192;15.670;2024-02-16T15:14:20;6.40;;;3.00;;
21941;SDS011;11135;54.192;15.670;2024-02-16T15:17:25;7.10;;;3.97;;
21941;SDS011;11135;54.192;15.670;2024-02-16T15:20:31;6.20;;;3.47;;
21941;SDS011;11135;54.192;15.670;2024-02-16T15:23:39;5.40;;;3.05;;
21941;SDS011;11135;54.192;15.670;2024-02-16T15:29:55;6.15;;;3.90;;
21941;SDS011;11135;54.192;15.670;2024-02-16T15:33:01;7.93;;;3.70;;
21941;SDS011;11135;54.192;15.670;2024-02-16T15:36:07;5.95;;;4.25;;
21941;SDS011;11135;54.192;15.670;2024-02-16T15:39:16;7.43;;;3.70;;
21941;SDS011;11135;54.192;15.670;2024-02-16T15:42:26;7.97;;;4.80;;
21941;SDS011;11135;54.192;15.670;2024-02-16T15:45:33;10.45;;;4.07;;
21941;SDS011;11135;54.192;15.670;2024-02-16T15:48:42;6.85;;;4.32;;
21941;SDS011;11135;54.192;15.670;2024-02-16T15:51:49;7.07;;;4.70;;
21941;SDS011;11135;54.192;15.670;2024-02-16T15:54:57;8.90;;;4.25;;
21941;SDS011;11135;54.192;15.670;2024-02-16T15:58:03;7.32;;;4.47;;
21941;SDS011;11135;54.192;15.670;2024-02-16T16:01:08;6.57;;;4.85;;
21941;SDS011;11135;54.192;15.670;2024-02-16T16:04:14;7.00;;;4.63;;
21941;SDS011;11135;54.192;15.670;2024-02-16T16:07:19;8.75;;;4.03;;
21941;SDS011;11135;54.192;15.670;2024-02-16T16:10:27;6.88;;;4.15;;
21941;SDS011;11135;54.192;15.670;2024-02-16T16:13:32;5.93;;;4.25;;
21941;SDS011;11135;54.192;15.670;2024-02-16T16:16:39;6.75;;;4.68;;
21941;SDS011;11135;54.192;15.670;2024-02-16T16:19:44;7.70;;;4.85;;
21941;SDS011;11135;54.192;15.670;2024-02-16T16:22:50;8.18;;;4.90;;
21941;SDS011;11135;54.192;15.670;2024-02-16T16:25:58;6.45;;;4.43;;
21941;SDS011;11135;54.192;15.670;2024-02-16T16:29:05;6.05;;;4.22;;
21941;SDS011;11135;54.192;15.670;2024-02-16T16:32:10;7.88;;;4.63;;
21941;SDS011;11135;54.192;15.670;2024-02-16T16:35:15;6.18;;;3.97;;
21941;SDS011;11135;54.192;15.670;2024-02-16T16:38:21;7.18;;;4.18;;
21941;SDS011;11135;54.192;15.670;2024-02-16T16:41:30;8.40;;;5.60;;
21941;SDS011;11135;54.192;15.670;2024-02-16T16:44:35;7.45;;;4.50;;
21941;SDS011;11135;54.192;15.670;2024-02-16T16:47:41;8.80;;;5.07;;
21941;SDS011;11135;54.192;15.670;2024-02-16T16:50:46;7.82;;;5.10;;
21941;SDS011;11135;54.192;15.670;2024-02-16T16:53:52;6.25;;;4.50;;
21941;SDS011;11135;54.192;15.670;2024-02-16T16:57:00;7.65;;;5.22;;
21941;SDS011;11135;54.192;15.670;2024-02-16T17:00:06;7.93;;;4.60;;
21941;SDS011;11135;54.192;15.670;2024-02-16T17:03:11;8.30;;;5.35;;
21941;SDS011;11135;54.192;15.670;2024-02-16T17:06:19;7.30;;;4.68;;
21941;SDS011;11135;54.192;15.670;2024-02-16T17:09:25;8.63;;;5.15;;
21941;SDS011;11135;54.192;15.670;2024-02-16T17:12:35;9.25;;;4.88;;
21941;SDS011;11135;54.192;15.670;2024-02-16T17:15:42;8.43;;;5.18;;
21941;SDS011;11135;54.192;15.670;2024-02-16T17:18:48;7.82;;;5.15;;
21941;SDS011;11135;54.192;15.670;2024-02-16T17:21:53;9.35;;;6.00;;
21941;SDS011;11135;54.192;15.670;2024-02-16T17:25:00;5.90;;;4.20;;
21941;SDS011;11135;54.192;15.670;2024-02-16T17:28:08;7.35;;;4.60;;
21941;SDS011;11135;54.192;15.670;2024-02-16T17:31:14;9.77;;;5.93;;
21941;SDS011;11135;54.192;15.670;2024-02-16T17:34:19;9.32;;;5.75;;
21941;SDS011;11135;54.192;15.670;2024-02-16T17:37:25;9.82;;;6.22;;
21941;SDS011;11135;54.192;15.670;2024-02-16T17:40:30;10.70;;;6.13;;
21941;SDS011;11135;54.192;15.670;2024-02-16T17:43:39;7.40;;;5.43;;
21941;SDS011;11135;54.192;15.670;2024-02-16T17:46:46;7.57;;;4.90;;
21941;SDS011;11135;54.192;15.670;2024-02-16T17:49:54;9.07;;;5.28;;
21941;SDS011;11135;54.192;15.670;2024-02-16T17:53:33;8.18;;;5.05;;
21941;SDS011;11135;54.192;15.670;2024-02-16T17:56:43;6.10;;;4.30;;
21941;SDS011;11135;54.192;15.670;2024-02-16T17:59:51;7.32;;;4.63;;
21941;SDS011;11135;54.192;15.670;2024-02-16T18:02:58;10.75;;;5.57;;
21941;SDS011;11135;54.192;15.670;2024-02-16T18:06:03;7.38;;;5.28;;
21941;SDS011;11135;54.192;15.670;2024-02-16T18:09:10;8.05;;;5.55;;
21941;SDS011;11135;54.192;15.670;2024-02-16T18:12:15;8.98;;;6.10;;
21941;SDS011;11135;54.192;15.670;2024-02-16T18:15:24;7.68;;;4.85;;
21941;SDS011;11135;54.192;15.670;2024-02-16T18:18:29;9.15;;;5.25;;